sensor_id;sensor_type;location;lat;lon;timestamp;pressure;altitude;pressure_sealevel;temperature;humidity
31911;BME280;18457;52.432;16.914;2023-10-19T00:00:18;-1.00;;;-128.00;-1.00
31911;BME280;18457;52.432;16.914;2023-10-19T00:03:13;-1.00;;;-128.00;-1.00
31911;BME280;18457;52.432;16.914;2023-10-19T00:05:44;-1.00;;;-128.00;-1.00
31911;BME280;18457;52.432;16.914;2023-10-19T00:08:17;-1.00;;;-128.00;-1.00
31911;BME280;18457;52.432;16.914;2023-10-19T00:10:52;-1.00;;;-128.00;-1.00
31911;BME280;18457;52.432;16.914;2023-10-19T00:13:33;-1.00;;;-128.00;-1.00
31911;BME280;18457;52.432;16.914;2023-10-19T00:16:06;-1.00;;;-128.00;-1.00
31911;BME280;18457;52.432;16.914;2023-10-19T00:18:44;-1.00;;;-128.00;-1.00
31911;BME280;18457;52.432;16.914;2023-10-19T00:21:20;-1.00;;;-128.00;-1.00
31911;BME280;18457;52.432;16.914;2023-10-19T00:23:56;-1.00;;;-128.00;-1.00
31911;BME280;18457;52.432;16.914;2023-10-19T00:26:29;-1.00;;;-128.00;-1.00
31911;BME280;18457;52.432;16.914;2023-10-19T00:29:03;-1.00;;;-128.00;-1.00
31911;BME280;18457;52.432;16.914;2023-10-19T00:31:45;-1.00;;;-128.00;-1.00
31911;BME280;18457;52.432;16.914;2023-10-19T00:34:19;-1.00;;;-128.00;-1.00
31911;BME280;18457;52.432;16.914;2023-10-19T00:36:52;-1.00;;;-128.00;-1.00
31911;BME280;18457;52.432;16.914;2023-10-19T00:39:26;-1.00;;;-128.00;-1.00
31911;BME280;18457;52.432;16.914;2023-10-19T00:41:58;-1.00;;;-128.00;-1.00
31911;BME280;18457;52.432;16.914;2023-10-19T00:44:33;-1.00;;;-128.00;-1.00
31911;BME280;18457;52.432;16.914;2023-10-19T00:47:12;-1.00;;;-128.00;-1.00
31911;BME280;18457;52.432;16.914;2023-10-19T00:49:45;-1.00;;;-128.00;-1.00
31911;BME280;18457;52.432;16.914;2023-10-19T00:52:18;-1.00;;;-128.00;-1.00
31911;BME280;18457;52.432;16.914;2023-10-19T00:54:54;-1.00;;;-128.00;-1.00
31911;BME280;18457;52.432;16.914;2023-10-19T00:57:31;-1.00;;;-128.00;-1.00
31911;BME280;18457;52.432;16.914;2023-10-19T01:00:07;-1.00;;;-128.00;-1.00
31911;BME280;18457;52.432;16.914;2023-10-19T01:02:43;-1.00;;;-128.00;-1.00
31911;BME280;18457;52.432;16.914;2023-10-19T01:05:17;-1.00;;;-128.00;-1.00
31911;BME280;18457;52.432;16.914;2023-10-19T01:07:52;-1.00;;;-128.00;-1.00
31911;BME280;18457;52.432;16.914;2023-10-19T01:10:28;-1.00;;;-128.00;-1.00
31911;BME280;18457;52.432;16.914;2023-10-19T01:13:02;-1.00;;;-128.00;-1.00
31911;BME280;18457;52.432;16.914;2023-10-19T01:15:36;-1.00;;;-128.00;-1.00
31911;BME280;18457;52.432;16.914;2023-10-19T01:18:08;-1.00;;;-128.00;-1.00
31911;BME280;18457;52.432;16.914;2023-10-19T01:20:45;-1.00;;;-128.00;-1.00
31911;BME280;18457;52.432;16.914;2023-10-19T01:23:23;-1.00;;;-128.00;-1.00
31911;BME280;18457;52.432;16.914;2023-10-19T01:26:00;-1.00;;;-128.00;-1.00
31911;BME280;18457;52.432;16.914;2023-10-19T01:28:37;-1.00;;;-128.00;-1.00
31911;BME280;18457;52.432;16.914;2023-10-19T01:31:20;-1.00;;;-128.00;-1.00
31911;BME280;18457;52.432;16.914;2023-10-19T01:34:02;-1.00;;;-128.00;-1.00
31911;BME280;18457;52.432;16.914;2023-10-19T01:36:37;-1.00;;;-128.00;-1.00
31911;BME280;18457;52.432;16.914;2023-10-19T01:39:13;-1.00;;;-128.00;-1.00
31911;BME280;18457;52.432;16.914;2023-10-19T01:41:45;-1.00;;;-128.00;-1.00
31911;BME280;18457;52.432;16.914;2023-10-19T01:44:17;-1.00;;;-128.00;-1.00
31911;BME280;18457;52.432;16.914;2023-10-19T01:46:52;-1.00;;;-128.00;-1.00
31911;BME280;18457;52.432;16.914;2023-10-19T01:49:25;-1.00;;;-128.00;-1.00
31911;BME280;18457;52.432;16.914;2023-10-19T01:52:01;-1.00;;;-128.00;-1.00
31911;BME280;18457;52.432;16.914;2023-10-19T01:54:33;-1.00;;;-128.00;-1.00
31911;BME280;18457;52.432;16.914;2023-10-19T01:57:08;-1.00;;;-128.00;-1.00
31911;BME280;18457;52.432;16.914;2023-10-19T01:59:43;-1.00;;;-128.00;-1.00
31911;BME280;18457;52.432;16.914;2023-10-19T02:02:15;-1.00;;;-128.00;-1.00
31911;BME280;18457;52.432;16.914;2023-10-19T02:04:48;-1.00;;;-128.00;-1.00
31911;BME280;18457;52.432;16.914;2023-10-19T02:07:22;-1.00;;;-128.00;-1.00
31911;BME280;18457;52.432;16.914;2023-10-19T02:09:56;-1.00;;;-128.00;-1.00
31911;BME280;18457;52.432;16.914;2023-10-19T02:12:30;-1.00;;;-128.00;-1.00
31911;BME280;18457;52.432;16.914;2023-10-19T02:15:06;-1.00;;;-128.00;-1.00
31911;BME280;18457;52.432;16.914;2023-10-19T02:17:39;-1.00;;;-128.00;-1.00
31911;BME280;18457;52.432;16.914;2023-10-19T02:20:13;-1.00;;;-128.00;-1.00
31911;BME280;18457;52.432;16.914;2023-10-19T02:23:08;-1.00;;;-128.00;-1.00
31911;BME280;18457;52.432;16.914;2023-10-19T02:25:40;-1.00;;;-128.00;-1.00
31911;BME280;18457;52.432;16.914;2023-10-19T02:28:13;-1.00;;;-128.00;-1.00
31911;BME280;18457;52.432;16.914;2023-10-19T02:30:45;-1.00;;;-128.00;-1.00
31911;BME280;18457;52.432;16.914;2023-10-19T02:33:18;-1.00;;;-128.00;-1.00
31911;BME280;18457;52.432;16.914;2023-10-19T02:35:50;-1.00;;;-128.00;-1.00
31911;BME280;18457;52.432;16.914;2023-10-19T02:38:23;-1.00;;;-128.00;-1.00
31911;BME280;18457;52.432;16.914;2023-10-19T02:40:56;-1.00;;;-128.00;-1.00
31911;BME280;18457;52.432;16.914;2023-10-19T02:43:28;-1.00;;;-128.00;-1.00
31911;BME280;18457;52.432;16.914;2023-10-19T02:46:03;-1.00;;;-128.00;-1.00
31911;BME280;18457;52.432;16.914;2023-10-19T02:48:36;-1.00;;;-128.00;-1.00
31911;BME280;18457;52.432;16.914;2023-10-19T02:51:09;-1.00;;;-128.00;-1.00
31911;BME280;18457;52.432;16.914;2023-10-19T02:53:42;-1.00;;;-128.00;-1.00
31911;BME280;18457;52.432;16.914;2023-10-19T02:56:15;-1.00;;;-128.00;-1.00
31911;BME280;18457;52.432;16.914;2023-10-19T02:58:50;-1.00;;;-128.00;-1.00
31911;BME280;18457;52.432;16.914;2023-10-19T03:01:23;-1.00;;;-128.00;-1.00
31911;BME280;18457;52.432;16.914;2023-10-19T03:03:56;-1.00;;;-128.00;-1.00
31911;BME280;18457;52.432;16.914;2023-10-19T03:06:31;-1.00;;;-128.00;-1.00
31911;BME280;18457;52.432;16.914;2023-10-19T03:09:07;-1.00;;;-128.00;-1.00
31911;BME280;18457;52.432;16.914;2023-10-19T03:11:46;-1.00;;;-128.00;-1.00
31911;BME280;18457;52.432;16.914;2023-10-19T03:14:23;-1.00;;;-128.00;-1.00
31911;BME280;18457;52.432;16.914;2023-10-19T03:16:58;-1.00;;;-128.00;-1.00
31911;BME280;18457;52.432;16.914;2023-10-19T03:19:31;-1.00;;;-128.00;-1.00
31911;BME280;18457;52.432;16.914;2023-10-19T03:22:05;-1.00;;;-128.00;-1.00
31911;BME280;18457;52.432;16.914;2023-10-19T03:24:39;-1.00;;;-128.00;-1.00
31911;BME280;18457;52.432;16.914;2023-10-19T03:27:15;-1.00;;;-128.00;-1.00
31911;BME280;18457;52.432;16.914;2023-10-19T03:29:48;-1.00;;;-128.00;-1.00
31911;BME280;18457;52.432;16.914;2023-10-19T03:32:25;-1.00;;;-128.00;-1.00
31911;BME280;18457;52.432;16.914;2023-10-19T03:34:59;-1.00;;;-128.00;-1.00
31911;BME280;18457;52.432;16.914;2023-10-19T03:37:33;-1.00;;;-128.00;-1.00
31911;BME280;18457;52.432;16.914;2023-10-19T03:40:09;-1.00;;;-128.00;-1.00
31911;BME280;18457;52.432;16.914;2023-10-19T03:42:46;-1.00;;;-128.00;-1.00
31911;BME280;18457;52.432;16.914;2023-10-19T03:45:18;-1.00;;;-128.00;-1.00
31911;BME280;18457;52.432;16.914;2023-10-19T03:47:53;-1.00;;;-128.00;-1.00
31911;BME280;18457;52.432;16.914;2023-10-19T03:50:26;-1.00;;;-128.00;-1.00
31911;BME280;18457;52.432;16.914;2023-10-19T03:53:00;-1.00;;;-128.00;-1.00
31911;BME280;18457;52.432;16.914;2023-10-19T03:55:32;-1.00;;;-128.00;-1.00
31911;BME280;18457;52.432;16.914;2023-10-19T03:58:08;-1.00;;;-128.00;-1.00
31911;BME280;18457;52.432;16.914;2023-10-19T04:00:43;-1.00;;;-128.00;-1.00
31911;BME280;18457;52.432;16.914;2023-10-19T04:03:16;-1.00;;;-128.00;-1.00
31911;BME280;18457;52.432;16.914;2023-10-19T04:05:49;-1.00;;;-128.00;-1.00
31911;BME280;18457;52.432;16.914;2023-10-19T04:08:21;-1.00;;;-128.00;-1.00
31911;BME280;18457;52.432;16.914;2023-10-19T04:10:57;-1.00;;;-128.00;-1.00
31911;BME280;18457;52.432;16.914;2023-10-19T04:13:42;-1.00;;;-128.00;-1.00
31911;BME280;18457;52.432;16.914;2023-10-19T04:16:16;-1.00;;;-128.00;-1.00
31911;BME280;18457;52.432;16.914;2023-10-19T04:18:48;-1.00;;;-128.00;-1.00
31911;BME280;18457;52.432;16.914;2023-10-19T04:21:20;-1.00;;;-128.00;-1.00
31911;BME280;18457;52.432;16.914;2023-10-19T04:23:52;-1.00;;;-128.00;-1.00
31911;BME280;18457;52.432;16.914;2023-10-19T04:26:24;-1.00;;;-128.00;-1.00
31911;BME280;18457;52.432;16.914;2023-10-19T04:28:57;-1.00;;;-128.00;-1.00
31911;BME280;18457;52.432;16.914;2023-10-19T04:31:29;-1.00;;;-128.00;-1.00
31911;BME280;18457;52.432;16.914;2023-10-19T04:34:01;-1.00;;;-128.00;-1.00
31911;BME280;18457;52.432;16.914;2023-10-19T04:36:40;-1.00;;;-128.00;-1.00
31911;BME280;18457;52.432;16.914;2023-10-19T04:39:14;-1.00;;;-128.00;-1.00
31911;BME280;18457;52.432;16.914;2023-10-19T04:41:46;-1.00;;;-128.00;-1.00
31911;BME280;18457;52.432;16.914;2023-10-19T04:44:20;-1.00;;;-128.00;-1.00
31911;BME280;18457;52.432;16.914;2023-10-19T04:46:53;-1.00;;;-128.00;-1.00
31911;BME280;18457;52.432;16.914;2023-10-19T04:49:25;-1.00;;;-128.00;-1.00
31911;BME280;18457;52.432;16.914;2023-10-19T04:51:57;-1.00;;;-128.00;-1.00
31911;BME280;18457;52.432;16.914;2023-10-19T04:54:29;-1.00;;;-128.00;-1.00
31911;BME280;18457;52.432;16.914;2023-10-19T04:57:02;-1.00;;;-128.00;-1.00
31911;BME280;18457;52.432;16.914;2023-10-19T04:59:34;-1.00;;;-128.00;-1.00
31911;BME280;18457;52.432;16.914;2023-10-19T05:02:06;-1.00;;;-128.00;-1.00
31911;BME280;18457;52.432;16.914;2023-10-19T05:04:37;-1.00;;;-128.00;-1.00
31911;BME280;18457;52.432;16.914;2023-10-19T05:07:11;-1.00;;;-128.00;-1.00
31911;BME280;18457;52.432;16.914;2023-10-19T05:09:48;-1.00;;;-128.00;-1.00
31911;BME280;18457;52.432;16.914;2023-10-19T05:12:20;-1.00;;;-128.00;-1.00
31911;BME280;18457;52.432;16.914;2023-10-19T05:14:52;-1.00;;;-128.00;-1.00
31911;BME280;18457;52.432;16.914;2023-10-19T05:17:24;-1.00;;;-128.00;-1.00
31911;BME280;18457;52.432;16.914;2023-10-19T05:21:02;99402.53;;;8.31;71.89
31911;BME280;18457;52.432;16.914;2023-10-19T05:23:34;99405.42;;;8.30;71.80
31911;BME280;18457;52.432;16.914;2023-10-19T05:26:06;99401.80;;;8.24;71.98
31911;BME280;18457;52.432;16.914;2023-10-19T05:28:39;99392.82;;;8.30;71.89
31911;BME280;18457;52.432;16.914;2023-10-19T05:31:13;99391.29;;;8.27;71.97
31911;BME280;18457;52.432;16.914;2023-10-19T05:33:45;99394.13;;;8.29;72.25
31911;BME280;18457;52.432;16.914;2023-10-19T05:36:19;99390.45;;;8.26;72.25
31911;BME280;18457;52.432;16.914;2023-10-19T05:38:50;99399.56;;;8.33;71.97
31911;BME280;18457;52.432;16.914;2023-10-19T05:41:23;99402.78;;;8.40;71.92
31911;BME280;18457;52.432;16.914;2023-10-19T05:43:55;99405.08;;;8.41;71.81
31911;BME280;18457;52.432;16.914;2023-10-19T05:46:28;99407.41;;;8.41;71.53
31911;BME280;18457;52.432;16.914;2023-10-19T05:49:00;99406.59;;;8.39;71.77
31911;BME280;18457;52.432;16.914;2023-10-19T05:51:35;99407.34;;;8.43;71.85
31911;BME280;18457;52.432;16.914;2023-10-19T05:54:07;99403.58;;;8.37;72.15
31911;BME280;18457;52.432;16.914;2023-10-19T05:56:40;99403.02;;;8.32;72.46
31911;BME280;18457;52.432;16.914;2023-10-19T05:59:12;99418.76;;;8.41;72.06
31911;BME280;18457;52.432;16.914;2023-10-19T06:01:45;99415.09;;;8.43;71.84
31911;BME280;18457;52.432;16.914;2023-10-19T06:04:18;99415.78;;;8.44;72.38
31911;BME280;18457;52.432;16.914;2023-10-19T06:06:51;99421.49;;;8.51;72.15
31911;BME280;18457;52.432;16.914;2023-10-19T06:09:23;99427.10;;;8.56;71.91
31911;BME280;18457;52.432;16.914;2023-10-19T06:12:00;99420.92;;;8.52;72.13
31911;BME280;18457;52.432;16.914;2023-10-19T06:14:33;99422.60;;;8.51;71.93
31911;BME280;18457;52.432;16.914;2023-10-19T06:17:05;99418.02;;;8.48;72.18
31911;BME280;18457;52.432;16.914;2023-10-19T06:19:37;99413.69;;;8.53;72.15
31911;BME280;18457;52.432;16.914;2023-10-19T06:22:09;99413.17;;;8.58;72.12
31911;BME280;18457;52.432;16.914;2023-10-19T06:24:41;99411.45;;;8.55;72.31
31911;BME280;18457;52.432;16.914;2023-10-19T06:27:14;99412.80;;;8.53;72.34
31911;BME280;18457;52.432;16.914;2023-10-19T06:29:46;99410.85;;;8.52;72.68
31911;BME280;18457;52.432;16.914;2023-10-19T06:32:18;99408.81;;;8.59;72.51
31911;BME280;18457;52.432;16.914;2023-10-19T06:34:50;99411.28;;;8.55;72.53
31911;BME280;18457;52.432;16.914;2023-10-19T06:37:22;99413.61;;;8.61;72.19
31911;BME280;18457;52.432;16.914;2023-10-19T06:39:54;99412.89;;;8.61;72.44
31911;BME280;18457;52.432;16.914;2023-10-19T06:42:26;99409.56;;;8.63;72.41
31911;BME280;18457;52.432;16.914;2023-10-19T06:44:59;99406.38;;;8.68;72.08
31911;BME280;18457;52.432;16.914;2023-10-19T06:47:31;99405.95;;;8.70;71.66
31911;BME280;18457;52.432;16.914;2023-10-19T06:50:09;99399.79;;;8.70;72.14
31911;BME280;18457;52.432;16.914;2023-10-19T06:52:42;99398.36;;;8.70;72.23
31911;BME280;18457;52.432;16.914;2023-10-19T06:55:15;99396.21;;;8.75;72.10
31911;BME280;18457;52.432;16.914;2023-10-19T06:57:52;99394.59;;;8.75;72.06
31911;BME280;18457;52.432;16.914;2023-10-19T07:00:25;99392.23;;;8.70;71.96
31911;BME280;18457;52.432;16.914;2023-10-19T07:02:59;99386.05;;;8.78;72.03
31911;BME280;18457;52.432;16.914;2023-10-19T07:05:32;99380.73;;;8.76;72.10
31911;BME280;18457;52.432;16.914;2023-10-19T07:08:05;99375.05;;;8.78;72.22
31911;BME280;18457;52.432;16.914;2023-10-19T07:10:38;99369.83;;;8.78;72.25
31911;BME280;18457;52.432;16.914;2023-10-19T07:13:10;99358.31;;;8.84;71.90
31911;BME280;18457;52.432;16.914;2023-10-19T07:15:41;99350.58;;;8.89;71.75
31911;BME280;18457;52.432;16.914;2023-10-19T07:18:16;99343.89;;;8.94;71.54
31911;BME280;18457;52.432;16.914;2023-10-19T07:20:48;99336.52;;;8.99;71.21
31911;BME280;18457;52.432;16.914;2023-10-19T07:23:20;99336.47;;;9.05;71.24
31911;BME280;18457;52.432;16.914;2023-10-19T07:25:54;99338.60;;;9.11;71.21
31911;BME280;18457;52.432;16.914;2023-10-19T07:28:27;99335.20;;;9.11;71.05
31911;BME280;18457;52.432;16.914;2023-10-19T07:30:58;99325.04;;;9.08;71.46
31911;BME280;18457;52.432;16.914;2023-10-19T07:33:30;99318.38;;;9.03;71.04
31911;BME280;18457;52.432;16.914;2023-10-19T07:36:11;99313.40;;;9.06;71.36
31911;BME280;18457;52.432;16.914;2023-10-19T07:38:45;99314.52;;;9.10;71.14
31911;BME280;18457;52.432;16.914;2023-10-19T07:41:18;99311.38;;;9.12;70.63
31911;BME280;18457;52.432;16.914;2023-10-19T07:43:50;99304.82;;;9.19;70.51
31911;BME280;18457;52.432;16.914;2023-10-19T07:46:22;99296.96;;;9.22;70.63
31911;BME280;18457;52.432;16.914;2023-10-19T07:48:56;99298.07;;;9.26;70.19
31911;BME280;18457;52.432;16.914;2023-10-19T07:51:30;99295.05;;;9.39;69.96
31911;BME280;18457;52.432;16.914;2023-10-19T07:54:01;99290.84;;;9.36;69.72
31911;BME280;18457;52.432;16.914;2023-10-19T07:56:34;99284.58;;;9.35;69.68
31911;BME280;18457;52.432;16.914;2023-10-19T07:59:06;99280.19;;;9.41;69.31
31911;BME280;18457;52.432;16.914;2023-10-19T08:01:38;99273.55;;;9.46;69.18
31911;BME280;18457;52.432;16.914;2023-10-19T08:04:11;99271.92;;;9.50;69.24
31911;BME280;18457;52.432;16.914;2023-10-19T08:06:43;99278.34;;;9.52;68.92
31911;BME280;18457;52.432;16.914;2023-10-19T08:09:15;99274.02;;;9.52;68.82
31911;BME280;18457;52.432;16.914;2023-10-19T08:11:53;99267.46;;;9.58;68.94
31911;BME280;18457;52.432;16.914;2023-10-19T08:14:27;99264.40;;;9.58;68.89
31911;BME280;18457;52.432;16.914;2023-10-19T08:17:01;99263.21;;;9.61;69.20
31911;BME280;18457;52.432;16.914;2023-10-19T08:19:34;99271.19;;;9.69;68.75
31911;BME280;18457;52.432;16.914;2023-10-19T08:22:06;99272.61;;;9.70;68.50
31911;BME280;18457;52.432;16.914;2023-10-19T08:24:39;99276.00;;;9.76;68.42
31911;BME280;18457;52.432;16.914;2023-10-19T08:27:16;99268.39;;;9.72;68.48
31911;BME280;18457;52.432;16.914;2023-10-19T08:29:49;99272.52;;;9.73;68.58
31911;BME280;18457;52.432;16.914;2023-10-19T08:32:20;99275.35;;;9.79;68.55
31911;BME280;18457;52.432;16.914;2023-10-19T08:34:52;99277.36;;;9.82;68.67
31911;BME280;18457;52.432;16.914;2023-10-19T08:37:25;99274.05;;;9.84;68.26
31911;BME280;18457;52.432;16.914;2023-10-19T08:39:57;99278.72;;;9.84;68.25
31911;BME280;18457;52.432;16.914;2023-10-19T08:42:28;99281.40;;;9.94;68.20
31911;BME280;18457;52.432;16.914;2023-10-19T08:45:01;99276.41;;;10.02;67.93
31911;BME280;18457;52.432;16.914;2023-10-19T08:47:32;99279.80;;;10.07;68.14
31911;BME280;18457;52.432;16.914;2023-10-19T08:50:31;99275.22;;;10.09;67.83
31911;BME280;18457;52.432;16.914;2023-10-19T08:53:06;99267.02;;;10.16;67.62
31911;BME280;18457;52.432;16.914;2023-10-19T08:55:39;99264.81;;;10.17;67.39
31911;BME280;18457;52.432;16.914;2023-10-19T08:58:21;99259.97;;;10.20;67.48
31911;BME280;18457;52.432;16.914;2023-10-19T09:00:53;99254.55;;;10.25;67.30
31911;BME280;18457;52.432;16.914;2023-10-19T09:03:28;99251.22;;;10.22;66.98
31911;BME280;18457;52.432;16.914;2023-10-19T09:06:02;99255.23;;;10.26;67.05
31911;BME280;18457;52.432;16.914;2023-10-19T09:08:36;99249.71;;;10.28;67.13
31911;BME280;18457;52.432;16.914;2023-10-19T09:11:17;99245.14;;;10.43;67.38
31911;BME280;18457;52.432;16.914;2023-10-19T09:13:53;99234.82;;;10.52;66.86
31911;BME280;18457;52.432;16.914;2023-10-19T09:16:28;99234.14;;;10.55;66.31
31911;BME280;18457;52.432;16.914;2023-10-19T09:19:01;99228.64;;;10.57;66.16
31911;BME280;18457;52.432;16.914;2023-10-19T09:21:33;99216.77;;;10.60;66.42
31911;BME280;18457;52.432;16.914;2023-10-19T09:24:06;99211.06;;;10.58;66.02
31911;BME280;18457;52.432;16.914;2023-10-19T09:26:40;99207.71;;;10.56;65.65
31911;BME280;18457;52.432;16.914;2023-10-19T09:29:14;99204.00;;;10.59;65.78
31911;BME280;18457;52.432;16.914;2023-10-19T09:31:50;99196.60;;;10.59;65.84
31911;BME280;18457;52.432;16.914;2023-10-19T09:34:24;99192.27;;;10.54;65.52
31911;BME280;18457;52.432;16.914;2023-10-19T09:37:04;99179.84;;;10.50;65.53
31911;BME280;18457;52.432;16.914;2023-10-19T09:39:36;99174.96;;;10.54;65.20
31911;BME280;18457;52.432;16.914;2023-10-19T09:42:09;99165.62;;;10.57;65.29
31911;BME280;18457;52.432;16.914;2023-10-19T09:44:44;99166.78;;;10.63;65.05
31911;BME280;18457;52.432;16.914;2023-10-19T09:47:29;99186.15;;;10.66;64.98
31911;BME280;18457;52.432;16.914;2023-10-19T09:50:02;99190.27;;;10.67;64.99
31911;BME280;18457;52.432;16.914;2023-10-19T09:52:37;99182.44;;;10.69;64.86
31911;BME280;18457;52.432;16.914;2023-10-19T09:55:14;99187.88;;;10.64;64.55
31911;BME280;18457;52.432;16.914;2023-10-19T09:57:53;99189.19;;;10.63;64.47
31911;BME280;18457;52.432;16.914;2023-10-19T10:00:27;99187.83;;;10.61;64.56
31911;BME280;18457;52.432;16.914;2023-10-19T10:03:03;99183.65;;;10.62;64.49
31911;BME280;18457;52.432;16.914;2023-10-19T10:05:48;99183.35;;;10.68;64.61
31911;BME280;18457;52.432;16.914;2023-10-19T10:08:37;99192.86;;;10.70;64.70
31911;BME280;18457;52.432;16.914;2023-10-19T10:11:20;99189.97;;;10.70;64.31
31911;BME280;18457;52.432;16.914;2023-10-19T10:13:54;99187.17;;;10.76;64.34
31911;BME280;18457;52.432;16.914;2023-10-19T10:16:28;99184.84;;;10.80;64.15
31911;BME280;18457;52.432;16.914;2023-10-19T10:19:01;99174.11;;;10.81;64.12
31911;BME280;18457;52.432;16.914;2023-10-19T10:21:34;99168.85;;;10.82;64.00
31911;BME280;18457;52.432;16.914;2023-10-19T10:24:09;99165.34;;;10.83;64.24
31911;BME280;18457;52.432;16.914;2023-10-19T10:26:59;99169.73;;;10.86;64.21
31911;BME280;18457;52.432;16.914;2023-10-19T10:29:33;99165.92;;;10.86;63.87
31911;BME280;18457;52.432;16.914;2023-10-19T10:32:05;99157.60;;;10.83;63.83
31911;BME280;18457;52.432;16.914;2023-10-19T10:34:47;99156.89;;;10.86;63.75
31911;BME280;18457;52.432;16.914;2023-10-19T10:37:20;99161.23;;;10.86;63.80
31911;BME280;18457;52.432;16.914;2023-10-19T10:39:59;99158.04;;;10.85;64.00
31911;BME280;18457;52.432;16.914;2023-10-19T10:42:31;99155.09;;;10.86;64.05
31911;BME280;18457;52.432;16.914;2023-10-19T10:45:05;99146.90;;;10.87;64.15
31911;BME280;18457;52.432;16.914;2023-10-19T10:47:45;99137.08;;;10.89;63.84
31911;BME280;18457;52.432;16.914;2023-10-19T10:50:20;99135.86;;;10.88;63.74
31911;BME280;18457;52.432;16.914;2023-10-19T10:52:52;99136.72;;;10.96;63.64
31911;BME280;18457;52.432;16.914;2023-10-19T10:55:28;99129.61;;;10.98;63.28
31911;BME280;18457;52.432;16.914;2023-10-19T10:58:01;99125.50;;;11.01;63.37
31911;BME280;18457;52.432;16.914;2023-10-19T11:00:35;99118.58;;;11.06;63.40
31911;BME280;18457;52.432;16.914;2023-10-19T11:03:15;99114.86;;;11.08;63.27
31911;BME280;18457;52.432;16.914;2023-10-19T11:06:32;99096.95;;;11.04;63.33
31911;BME280;18457;52.432;16.914;2023-10-19T11:09:11;99084.31;;;11.12;63.18
31911;BME280;18457;52.432;16.914;2023-10-19T11:11:53;99082.01;;;11.07;63.27
31911;BME280;18457;52.432;16.914;2023-10-19T11:14:56;99083.92;;;11.09;63.28
31911;BME280;18457;52.432;16.914;2023-10-19T11:17:51;99083.63;;;11.11;63.64
31911;BME280;18457;52.432;16.914;2023-10-19T11:20:57;99083.08;;;11.22;63.24
31911;BME280;18457;52.432;16.914;2023-10-19T11:23:54;99093.80;;;11.21;63.50
31911;BME280;18457;52.432;16.914;2023-10-19T11:26:43;99087.38;;;11.19;63.28
31911;BME280;18457;52.432;16.914;2023-10-19T11:29:55;99076.46;;;11.17;62.96
31911;BME280;18457;52.432;16.914;2023-10-19T11:32:38;99081.05;;;11.19;63.46
31911;BME280;18457;52.432;16.914;2023-10-19T11:35:38;99080.17;;;11.23;63.98
31911;BME280;18457;52.432;16.914;2023-10-19T11:38:13;99075.85;;;11.30;63.67
31911;BME280;18457;52.432;16.914;2023-10-19T11:40:45;99073.35;;;11.33;63.31
31911;BME280;18457;52.432;16.914;2023-10-19T11:43:19;99073.27;;;11.34;63.36
31911;BME280;18457;52.432;16.914;2023-10-19T11:45:53;99077.77;;;11.31;63.18
31911;BME280;18457;52.432;16.914;2023-10-19T11:48:25;99072.05;;;11.23;63.43
31911;BME280;18457;52.432;16.914;2023-10-19T11:50:57;99068.98;;;11.29;63.04
31911;BME280;18457;52.432;16.914;2023-10-19T11:53:31;99064.70;;;11.32;62.88
31911;BME280;18457;52.432;16.914;2023-10-19T11:56:06;99061.50;;;11.38;63.10
31911;BME280;18457;52.432;16.914;2023-10-19T11:58:39;99066.34;;;11.51;62.96
31911;BME280;18457;52.432;16.914;2023-10-19T12:01:13;99064.12;;;11.48;62.73
31911;BME280;18457;52.432;16.914;2023-10-19T12:03:49;99051.91;;;11.53;62.86
31911;BME280;18457;52.432;16.914;2023-10-19T12:06:22;99050.14;;;11.53;63.04
31911;BME280;18457;52.432;16.914;2023-10-19T12:08:54;99046.20;;;11.48;62.85
31911;BME280;18457;52.432;16.914;2023-10-19T12:11:29;99050.59;;;11.43;62.83
31911;BME280;18457;52.432;16.914;2023-10-19T12:14:02;99044.71;;;11.49;63.04
31911;BME280;18457;52.432;16.914;2023-10-19T12:16:35;99040.44;;;11.48;63.41
31911;BME280;18457;52.432;16.914;2023-10-19T12:19:07;99038.79;;;11.44;62.98
31911;BME280;18457;52.432;16.914;2023-10-19T12:21:40;99036.11;;;11.44;63.12
31911;BME280;18457;52.432;16.914;2023-10-19T12:24:13;99031.14;;;11.42;63.27
31911;BME280;18457;52.432;16.914;2023-10-19T12:26:46;99022.95;;;11.43;63.26
31911;BME280;18457;52.432;16.914;2023-10-19T12:29:18;99023.44;;;11.48;63.23
31911;BME280;18457;52.432;16.914;2023-10-19T12:31:52;99027.09;;;11.54;63.40
31911;BME280;18457;52.432;16.914;2023-10-19T12:34:24;99021.09;;;11.51;63.41
31911;BME280;18457;52.432;16.914;2023-10-19T12:37:01;99014.67;;;11.46;63.38
31911;BME280;18457;52.432;16.914;2023-10-19T12:39:34;99011.02;;;11.46;63.40
31911;BME280;18457;52.432;16.914;2023-10-19T12:42:14;99009.71;;;11.48;63.55
31911;BME280;18457;52.432;16.914;2023-10-19T12:44:46;99011.73;;;11.51;63.37
31911;BME280;18457;52.432;16.914;2023-10-19T12:47:18;99012.88;;;11.53;63.38
31911;BME280;18457;52.432;16.914;2023-10-19T12:49:53;99008.60;;;11.52;63.44
31911;BME280;18457;52.432;16.914;2023-10-19T12:52:26;99006.56;;;11.53;63.90
31911;BME280;18457;52.432;16.914;2023-10-19T12:54:59;99001.13;;;11.49;63.46
31911;BME280;18457;52.432;16.914;2023-10-19T12:57:36;99001.20;;;11.47;63.56
31911;BME280;18457;52.432;16.914;2023-10-19T13:00:11;99001.58;;;11.43;63.77
31911;BME280;18457;52.432;16.914;2023-10-19T13:03:05;98996.63;;;11.52;63.82
31911;BME280;18457;52.432;16.914;2023-10-19T13:05:37;98990.85;;;11.45;63.63
31911;BME280;18457;52.432;16.914;2023-10-19T13:08:11;98986.09;;;11.46;63.71
31911;BME280;18457;52.432;16.914;2023-10-19T13:10:46;98982.17;;;11.48;63.48
31911;BME280;18457;52.432;16.914;2023-10-19T13:13:19;98972.36;;;11.46;63.23
31911;BME280;18457;52.432;16.914;2023-10-19T13:15:54;98967.65;;;11.49;63.71
31911;BME280;18457;52.432;16.914;2023-10-19T13:18:26;98968.70;;;11.46;63.73
31911;BME280;18457;52.432;16.914;2023-10-19T13:21:00;98969.55;;;11.37;64.42
31911;BME280;18457;52.432;16.914;2023-10-19T13:23:35;98969.90;;;11.45;64.10
31911;BME280;18457;52.432;16.914;2023-10-19T13:26:07;98974.32;;;11.50;64.17
31911;BME280;18457;52.432;16.914;2023-10-19T13:28:48;98975.44;;;11.42;64.28
31911;BME280;18457;52.432;16.914;2023-10-19T13:31:23;98973.80;;;11.38;64.53
31911;BME280;18457;52.432;16.914;2023-10-19T13:33:57;98967.59;;;11.40;64.74
31911;BME280;18457;52.432;16.914;2023-10-19T13:36:30;98959.70;;;11.35;64.64
31911;BME280;18457;52.432;16.914;2023-10-19T13:39:02;98961.21;;;11.37;64.91